sensor_id;sensor_type;location;lat;lon;timestamp;pressure;altitude;pressure_sealevel;temperature;humidity
26087;BME280;13851;43.434;28.338;2023-02-03T00:00:36;99891.13;;;2.99;100.00
26087;BME280;13851;43.434;28.338;2023-02-03T00:03:02;99819.38;;;2.53;100.00
26087;BME280;13851;43.434;28.338;2023-02-03T00:05:28;99886.84;;;2.76;100.00
26087;BME280;13851;43.434;28.338;2023-02-03T00:07:56;99872.72;;;2.51;100.00
26087;BME280;13851;43.434;28.338;2023-02-03T00:10:24;99894.47;;;2.92;100.00
26087;BME280;13851;43.434;28.338;2023-02-03T00:12:50;99870.66;;;2.85;100.00
26087;BME280;13851;43.434;28.338;2023-02-03T00:15:20;99886.97;;;2.74;100.00
26087;BME280;13851;43.434;28.338;2023-02-03T00:17:47;99877.47;;;2.80;100.00
26087;BME280;13851;43.434;28.338;2023-02-03T00:20:13;99893.53;;;2.72;100.00
26087;BME280;13851;43.434;28.338;2023-02-03T00:22:38;99873.13;;;2.89;100.00
26087;BME280;13851;43.434;28.338;2023-02-03T00:25:04;99877.94;;;2.85;100.00
26087;BME280;13851;43.434;28.338;2023-02-03T00:27:31;99938.13;;;2.98;100.00
26087;BME280;13851;43.434;28.338;2023-02-03T00:29:56;99906.19;;;2.92;100.00
26087;BME280;13851;43.434;28.338;2023-02-03T00:32:22;99625.56;;;1.19;100.00
26087;BME280;13851;43.434;28.338;2023-02-03T00:34:47;99654.44;;;1.39;100.00
26087;BME280;13851;43.434;28.338;2023-02-03T00:37:13;99904.66;;;2.78;100.00
26087;BME280;13851;43.434;28.338;2023-02-03T00:39:38;99906.28;;;2.70;100.00
26087;BME280;13851;43.434;28.338;2023-02-03T00:42:05;99562.84;;;0.62;100.00
26087;BME280;13851;43.434;28.338;2023-02-03T00:44:30;99782.66;;;1.98;100.00
26087;BME280;13851;43.434;28.338;2023-02-03T00:46:56;99939.81;;;2.57;100.00
26087;BME280;13851;43.434;28.338;2023-02-03T00:49:21;99891.13;;;2.57;100.00
26087;BME280;13851;43.434;28.338;2023-02-03T00:51:50;99902.56;;;2.61;100.00
26087;BME280;13851;43.434;28.338;2023-02-03T00:54:16;99610.13;;;0.77;100.00
26087;BME280;13851;43.434;28.338;2023-02-03T00:56:41;99868.09;;;2.42;100.00
26087;BME280;13851;43.434;28.338;2023-02-03T00:59:07;99507.53;;;0.36;100.00
26087;BME280;13851;43.434;28.338;2023-02-03T01:01:33;99884.94;;;2.67;100.00
26087;BME280;13851;43.434;28.338;2023-02-03T01:03:58;99854.31;;;2.45;100.00
26087;BME280;13851;43.434;28.338;2023-02-03T01:06:25;99869.66;;;2.45;100.00
26087;BME280;13851;43.434;28.338;2023-02-03T01:08:51;99865.47;;;2.52;100.00
26087;BME280;13851;43.434;28.338;2023-02-03T01:11:23;99884.66;;;2.70;100.00
26087;BME280;13851;43.434;28.338;2023-02-03T01:13:50;99894.44;;;2.61;100.00
26087;BME280;13851;43.434;28.338;2023-02-03T01:16:18;99888.25;;;2.38;100.00
26087;BME280;13851;43.434;28.338;2023-02-03T01:18:44;99824.06;;;2.19;100.00
26087;BME280;13851;43.434;28.338;2023-02-03T01:21:13;99893.44;;;2.62;100.00
26087;BME280;13851;43.434;28.338;2023-02-03T01:23:39;99688.25;;;1.43;100.00
26087;BME280;13851;43.434;28.338;2023-02-03T01:26:07;99893.31;;;2.64;100.00
26087;BME280;13851;43.434;28.338;2023-02-03T01:28:33;99826.16;;;2.27;100.00
26087;BME280;13851;43.434;28.338;2023-02-03T01:31:16;99858.84;;;2.45;100.00
26087;BME280;13851;43.434;28.338;2023-02-03T01:33:43;99659.03;;;1.16;100.00
26087;BME280;13851;43.434;28.338;2023-02-03T01:36:11;99855.22;;;2.34;100.00
26087;BME280;13851;43.434;28.338;2023-02-03T01:38:38;99923.63;;;2.46;100.00
26087;BME280;13851;43.434;28.338;2023-02-03T01:41:05;99892.31;;;2.65;100.00
26087;BME280;13851;43.434;28.338;2023-02-03T01:43:37;99930.69;;;2.58;100.00
26087;BME280;13851;43.434;28.338;2023-02-03T01:46:35;99898.91;;;2.51;100.00
26087;BME280;13851;43.434;28.338;2023-02-03T01:49:33;99890.13;;;2.58;100.00
26087;BME280;13851;43.434;28.338;2023-02-03T01:52:00;99866.00;;;2.14;100.00
26087;BME280;13851;43.434;28.338;2023-02-03T01:54:30;99612.44;;;0.82;100.00
26087;BME280;13851;43.434;28.338;2023-02-03T01:57:03;99821.56;;;2.06;100.00
26087;BME280;13851;43.434;28.338;2023-02-03T01:59:32;99618.03;;;0.90;100.00
26087;BME280;13851;43.434;28.338;2023-02-03T02:01:59;99896.41;;;2.59;100.00
26087;BME280;13851;43.434;28.338;2023-02-03T02:04:38;99876.97;;;2.33;100.00
26087;BME280;13851;43.434;28.338;2023-02-03T02:07:08;99914.72;;;2.55;100.00
26087;BME280;13851;43.434;28.338;2023-02-03T02:09:34;99914.06;;;2.42;100.00
26087;BME280;13851;43.434;28.338;2023-02-03T02:11:59;99878.44;;;2.37;100.00
26087;BME280;13851;43.434;28.338;2023-02-03T02:14:25;99894.91;;;2.34;100.00
26087;BME280;13851;43.434;28.338;2023-02-03T02:16:58;99911.28;;;2.53;100.00
26087;BME280;13851;43.434;28.338;2023-02-03T02:30:50;99934.81;;;2.42;100.00
26087;BME280;13851;43.434;28.338;2023-02-03T02:38:57;99898.06;;;2.39;100.00
26087;BME280;13851;43.434;28.338;2023-02-03T02:41:40;99913.31;;;2.40;100.00
26087;BME280;13851;43.434;28.338;2023-02-03T02:44:22;99912.34;;;2.41;100.00
26087;BME280;13851;43.434;28.338;2023-02-03T02:46:58;99678.19;;;1.02;100.00
26087;BME280;13851;43.434;28.338;2023-02-03T02:51:56;99884.47;;;2.29;100.00
26087;BME280;13851;43.434;28.338;2023-02-03T02:54:26;99866.06;;;2.23;100.00
26087;BME280;13851;43.434;28.338;2023-02-03T02:56:55;99913.72;;;2.36;100.00
26087;BME280;13851;43.434;28.338;2023-02-03T02:59:23;99897.69;;;2.12;100.00
26087;BME280;13851;43.434;28.338;2023-02-03T03:01:49;99887.06;;;2.31;100.00
26087;BME280;13851;43.434;28.338;2023-02-03T03:04:20;99828.97;;;1.93;100.00
26087;BME280;13851;43.434;28.338;2023-02-03T03:06:53;99606.09;;;0.49;100.00
26087;BME280;13851;43.434;28.338;2023-02-03T03:09:25;99913.78;;;2.13;100.00
26087;BME280;13851;43.434;28.338;2023-02-03T03:12:06;99898.78;;;2.09;100.00
26087;BME280;13851;43.434;28.338;2023-02-03T03:14:35;99915.38;;;2.16;100.00
26087;BME280;13851;43.434;28.338;2023-02-03T03:17:05;99904.34;;;2.07;100.00
26087;BME280;13851;43.434;28.338;2023-02-03T03:19:34;99941.13;;;2.20;100.00
26087;BME280;13851;43.434;28.338;2023-02-03T03:22:04;99933.31;;;2.17;100.00
26087;BME280;13851;43.434;28.338;2023-02-03T03:24:33;99629.25;;;0.41;100.00
26087;BME280;13851;43.434;28.338;2023-02-03T03:29:54;99893.09;;;1.91;100.00
26087;BME280;13851;43.434;28.338;2023-02-03T03:32:21;99894.56;;;1.95;100.00
26087;BME280;13851;43.434;28.338;2023-02-03T03:34:47;99911.84;;;1.93;100.00
26087;BME280;13851;43.434;28.338;2023-02-03T03:37:18;99945.09;;;2.16;100.00
26087;BME280;13851;43.434;28.338;2023-02-03T03:42:33;99956.88;;;2.26;100.00
26087;BME280;13851;43.434;28.338;2023-02-03T03:45:15;99902.28;;;2.00;100.00
26087;BME280;13851;43.434;28.338;2023-02-03T03:47:59;99921.56;;;1.95;100.00
26087;BME280;13851;43.434;28.338;2023-02-03T03:50:33;99930.88;;;2.02;100.00
26087;BME280;13851;43.434;28.338;2023-02-03T03:53:01;99938.22;;;2.12;100.00
26087;BME280;13851;43.434;28.338;2023-02-03T03:55:30;99584.72;;;0.03;100.00
26087;BME280;13851;43.434;28.338;2023-02-03T03:58:30;99937.09;;;2.14;100.00
26087;BME280;13851;43.434;28.338;2023-02-03T04:01:01;99953.88;;;1.86;100.00
26087;BME280;13851;43.434;28.338;2023-02-03T04:03:40;99921.31;;;1.87;100.00
26087;BME280;13851;43.434;28.338;2023-02-03T04:06:08;99797.00;;;1.00;100.00
26087;BME280;13851;43.434;28.338;2023-02-03T04:08:34;99942.06;;;1.87;100.00
26087;BME280;13851;43.434;28.338;2023-02-03T04:11:00;99992.28;;;1.89;100.00
26087;BME280;13851;43.434;28.338;2023-02-03T04:13:25;99664.41;;;0.39;100.00
26087;BME280;13851;43.434;28.338;2023-02-03T04:15:54;99965.59;;;2.18;100.00
26087;BME280;13851;43.434;28.338;2023-02-03T04:18:19;99946.75;;;1.85;100.00
26087;BME280;13851;43.434;28.338;2023-02-03T04:20:44;99836.22;;;1.04;100.00
26087;BME280;13851;43.434;28.338;2023-02-03T04:23:10;99937.16;;;1.92;100.00
26087;BME280;13851;43.434;28.338;2023-02-03T04:25:36;99984.28;;;1.99;100.00
26087;BME280;13851;43.434;28.338;2023-02-03T04:28:01;99964.16;;;2.03;100.00
26087;BME280;13851;43.434;28.338;2023-02-03T04:30:27;99965.00;;;2.03;100.00
26087;BME280;13851;43.434;28.338;2023-02-03T04:32:53;99897.53;;;1.47;100.00
26087;BME280;13851;43.434;28.338;2023-02-03T04:35:18;99905.75;;;1.68;100.00
26087;BME280;13851;43.434;28.338;2023-02-03T04:37:45;99968.94;;;2.11;100.00
26087;BME280;13851;43.434;28.338;2023-02-03T04:40:11;99928.22;;;1.69;100.00
26087;BME280;13851;43.434;28.338;2023-02-03T04:42:38;99989.31;;;2.03;100.00
26087;BME280;13851;43.434;28.338;2023-02-03T04:45:05;99989.44;;;2.13;100.00
26087;BME280;13851;43.434;28.338;2023-02-03T04:47:31;100022.47;;;2.17;100.00
26087;BME280;13851;43.434;28.338;2023-02-03T04:49:56;99929.66;;;1.84;100.00
26087;BME280;13851;43.434;28.338;2023-02-03T04:52:22;99717.81;;;0.45;100.00
26087;BME280;13851;43.434;28.338;2023-02-03T04:54:47;99975.81;;;2.03;100.00
26087;BME280;13851;43.434;28.338;2023-02-03T04:57:13;100042.63;;;2.01;100.00
26087;BME280;13851;43.434;28.338;2023-02-03T04:59:38;100050.88;;;2.11;100.00
26087;BME280;13851;43.434;28.338;2023-02-03T05:02:04;100008.84;;;2.07;100.00
26087;BME280;13851;43.434;28.338;2023-02-03T05:04:31;99913.03;;;1.45;100.00
26087;BME280;13851;43.434;28.338;2023-02-03T05:06:57;99985.16;;;1.88;100.00
26087;BME280;13851;43.434;28.338;2023-02-03T05:09:23;99985.53;;;1.83;100.00
26087;BME280;13851;43.434;28.338;2023-02-03T05:11:49;99717.03;;;0.10;100.00
26087;BME280;13851;43.434;28.338;2023-02-03T05:14:14;100038.19;;;1.78;100.00
26087;BME280;13851;43.434;28.338;2023-02-03T05:16:40;99945.19;;;1.60;100.00
26087;BME280;13851;43.434;28.338;2023-02-03T05:19:05;100040.41;;;2.06;100.00
26087;BME280;13851;43.434;28.338;2023-02-03T05:21:31;100069.16;;;1.96;100.00
26087;BME280;13851;43.434;28.338;2023-02-03T05:23:56;99898.84;;;0.97;100.00
26087;BME280;13851;43.434;28.338;2023-02-03T05:26:22;100075.53;;;2.06;100.00
26087;BME280;13851;43.434;28.338;2023-02-03T05:28:48;100054.16;;;1.81;100.00
26087;BME280;13851;43.434;28.338;2023-02-03T05:31:13;100078.47;;;2.15;100.00
26087;BME280;13851;43.434;28.338;2023-02-03T05:33:39;100059.22;;;1.97;100.00
26087;BME280;13851;43.434;28.338;2023-02-03T05:36:04;99791.91;;;0.51;100.00
26087;BME280;13851;43.434;28.338;2023-02-03T05:38:30;100055.88;;;2.04;100.00
26087;BME280;13851;43.434;28.338;2023-02-03T05:40:56;99837.69;;;0.86;100.00
26087;BME280;13851;43.434;28.338;2023-02-03T05:43:39;100004.94;;;1.77;100.00
26087;BME280;13851;43.434;28.338;2023-02-03T05:46:06;100075.91;;;2.13;100.00
26087;BME280;13851;43.434;28.338;2023-02-03T05:48:32;100118.28;;;2.24;100.00
26087;BME280;13851;43.434;28.338;2023-02-03T05:50:58;100044.84;;;1.96;100.00
26087;BME280;13851;43.434;28.338;2023-02-03T05:53:24;100046.91;;;1.93;100.00
26087;BME280;13851;43.434;28.338;2023-02-03T05:55:50;100007.28;;;1.60;100.00
26087;BME280;13851;43.434;28.338;2023-02-03T05:58:16;100040.66;;;2.03;100.00
26087;BME280;13851;43.434;28.338;2023-02-03T06:00:42;100082.56;;;2.20;100.00
26087;BME280;13851;43.434;28.338;2023-02-03T06:03:07;100045.31;;;2.13;100.00
26087;BME280;13851;43.434;28.338;2023-02-03T06:05:36;100103.91;;;2.57;100.00
26087;BME280;13851;43.434;28.338;2023-02-03T06:08:08;100067.66;;;2.37;100.00
26087;BME280;13851;43.434;28.338;2023-02-03T06:10:34;100114.34;;;2.62;100.00
26087;BME280;13851;43.434;28.338;2023-02-03T06:13:10;100105.22;;;2.74;100.00
26087;BME280;13851;43.434;28.338;2023-02-03T06:15:38;99830.13;;;1.14;100.00
26087;BME280;13851;43.434;28.338;2023-02-03T06:18:04;100087.91;;;2.54;100.00
26087;BME280;13851;43.434;28.338;2023-02-03T06:20:32;99943.19;;;1.73;100.00
26087;BME280;13851;43.434;28.338;2023-02-03T06:22:57;100064.44;;;2.54;100.00
26087;BME280;13851;43.434;28.338;2023-02-03T06:25:23;99840.16;;;1.23;100.00
26087;BME280;13851;43.434;28.338;2023-02-03T06:27:50;100095.50;;;2.82;100.00
26087;BME280;13851;43.434;28.338;2023-02-03T06:30:16;100073.47;;;2.76;100.00
26087;BME280;13851;43.434;28.338;2023-02-03T06:32:47;100118.94;;;2.93;100.00
26087;BME280;13851;43.434;28.338;2023-02-03T06:35:12;100113.72;;;3.12;100.00
26087;BME280;13851;43.434;28.338;2023-02-03T06:37:38;99904.41;;;1.63;100.00
26087;BME280;13851;43.434;28.338;2023-02-03T06:40:04;100065.16;;;2.68;100.00
26087;BME280;13851;43.434;28.338;2023-02-03T06:42:29;99716.72;;;0.48;100.00
26087;BME280;13851;43.434;28.338;2023-02-03T06:44:55;100166.28;;;2.99;100.00
26087;BME280;13851;43.434;28.338;2023-02-03T06:47:20;99859.16;;;1.55;100.00
26087;BME280;13851;43.434;28.338;2023-02-03T06:49:46;99841.13;;;1.44;100.00
26087;BME280;13851;43.434;28.338;2023-02-03T06:52:11;100125.69;;;3.31;100.00
26087;BME280;13851;43.434;28.338;2023-02-03T06:54:37;100131.25;;;3.29;100.00
26087;BME280;13851;43.434;28.338;2023-02-03T06:57:02;99951.69;;;2.23;100.00
26087;BME280;13851;43.434;28.338;2023-02-03T06:59:31;100046.50;;;2.85;100.00
26087;BME280;13851;43.434;28.338;2023-02-03T07:01:58;100139.31;;;3.41;100.00
26087;BME280;13851;43.434;28.338;2023-02-03T07:04:24;100137.88;;;3.57;100.00
26087;BME280;13851;43.434;28.338;2023-02-03T07:06:52;100146.75;;;3.59;100.00
26087;BME280;13851;43.434;28.338;2023-02-03T07:09:18;100152.66;;;3.85;100.00
26087;BME280;13851;43.434;28.338;2023-02-03T07:11:44;100157.31;;;4.04;100.00
26087;BME280;13851;43.434;28.338;2023-02-03T07:14:09;100134.31;;;3.99;100.00
26087;BME280;13851;43.434;28.338;2023-02-03T07:16:35;100150.81;;;4.37;100.00
26087;BME280;13851;43.434;28.338;2023-02-03T07:19:02;100118.63;;;4.23;100.00
26087;BME280;13851;43.434;28.338;2023-02-03T07:21:28;100167.28;;;4.55;100.00
26087;BME280;13851;43.434;28.338;2023-02-03T07:23:53;99877.47;;;2.80;100.00
26087;BME280;13851;43.434;28.338;2023-02-03T07:26:19;100113.41;;;4.31;100.00
26087;BME280;13851;43.434;28.338;2023-02-03T07:28:47;100144.25;;;4.40;100.00
26087;BME280;13851;43.434;28.338;2023-02-03T07:31:13;100170.00;;;4.55;100.00
26087;BME280;13851;43.434;28.338;2023-02-03T07:33:42;99986.59;;;3.74;100.00
26087;BME280;13851;43.434;28.338;2023-02-03T07:36:08;100169.00;;;4.87;100.00
26087;BME280;13851;43.434;28.338;2023-02-03T07:38:34;99875.00;;;3.19;100.00
26087;BME280;13851;43.434;28.338;2023-02-03T07:41:02;100156.66;;;5.13;100.00
26087;BME280;13851;43.434;28.338;2023-02-03T07:43:28;99989.53;;;4.41;100.00
26087;BME280;13851;43.434;28.338;2023-02-03T07:45:53;100183.13;;;5.40;100.00
26087;BME280;13851;43.434;28.338;2023-02-03T07:48:19;99897.72;;;3.68;100.00
26087;BME280;13851;43.434;28.338;2023-02-03T07:50:46;100183.69;;;5.34;100.00
26087;BME280;13851;43.434;28.338;2023-02-03T07:53:12;100160.09;;;5.35;100.00
26087;BME280;13851;43.434;28.338;2023-02-03T07:55:38;100192.28;;;5.39;100.00
26087;BME280;13851;43.434;28.338;2023-02-03T07:58:04;99920.56;;;3.75;100.00
26087;BME280;13851;43.434;28.338;2023-02-03T08:00:30;100202.44;;;5.47;100.00
26087;BME280;13851;43.434;28.338;2023-02-03T08:02:57;100196.56;;;5.42;100.00
26087;BME280;13851;43.434;28.338;2023-02-03T08:05:23;99928.25;;;3.70;100.00
26087;BME280;13851;43.434;28.338;2023-02-03T08:07:51;99907.16;;;3.73;100.00
26087;BME280;13851;43.434;28.338;2023-02-03T08:10:16;100243.81;;;5.80;100.00
26087;BME280;13851;43.434;28.338;2023-02-03T08:12:43;100152.66;;;5.76;100.00
26087;BME280;13851;43.434;28.338;2023-02-03T08:15:09;100175.16;;;5.97;100.00
26087;BME280;13851;43.434;28.338;2023-02-03T08:17:37;100224.06;;;6.26;100.00
26087;BME280;13851;43.434;28.338;2023-02-03T08:20:08;100212.31;;;6.35;100.00
26087;BME280;13851;43.434;28.338;2023-02-03T08:22:34;100218.75;;;6.34;100.00
26087;BME280;13851;43.434;28.338;2023-02-03T08:24:59;100251.28;;;6.16;100.00
26087;BME280;13851;43.434;28.338;2023-02-03T08:27:25;99979.84;;;4.58;100.00
26087;BME280;13851;43.434;28.338;2023-02-03T08:29:50;100211.19;;;6.18;100.00
26087;BME280;13851;43.434;28.338;2023-02-03T08:32:18;100237.69;;;6.16;100.00
26087;BME280;13851;43.434;28.338;2023-02-03T08:34:44;100232.41;;;6.05;100.00
26087;BME280;13851;43.434;28.338;2023-02-03T08:37:11;100217.34;;;6.20;100.00
26087;BME280;13851;43.434;28.338;2023-02-03T08:39:37;100263.00;;;6.46;100.00
26087;BME280;13851;43.434;28.338;2023-02-03T08:42:05;100237.72;;;6.63;100.00
26087;BME280;13851;43.434;28.338;2023-02-03T08:44:31;100235.38;;;6.88;100.00
26087;BME280;13851;43.434;28.338;2023-02-03T08:46:58;100192.13;;;6.75;100.00
26087;BME280;13851;43.434;28.338;2023-02-03T08:49:28;99967.59;;;5.69;100.00
26087;BME280;13851;43.434;28.338;2023-02-03T08:51:54;100199.06;;;7.24;100.00
26087;BME280;13851;43.434;28.338;2023-02-03T08:54:20;100241.94;;;7.50;100.00
26087;BME280;13851;43.434;28.338;2023-02-03T08:56:46;100191.78;;;7.43;100.00
26087;BME280;13851;43.434;28.338;2023-02-03T08:59:12;100196.28;;;7.34;100.00
26087;BME280;13851;43.434;28.338;2023-02-03T09:01:38;100236.94;;;7.45;100.00
26087;BME280;13851;43.434;28.338;2023-02-03T09:04:11;100286.53;;;7.76;100.00
26087;BME280;13851;43.434;28.338;2023-02-03T09:06:36;100219.06;;;7.78;100.00
26087;BME280;13851;43.434;28.338;2023-02-03T09:09:03;100175.50;;;7.69;100.00
26087;BME280;13851;43.434;28.338;2023-02-03T09:11:29;100178.69;;;7.64;100.00
26087;BME280;13851;43.434;28.338;2023-02-03T09:13:54;100001.81;;;6.54;100.00
26087;BME280;13851;43.434;28.338;2023-02-03T09:16:23;100016.56;;;6.79;100.00
26087;BME280;13851;43.434;28.338;2023-02-03T09:18:49;100022.63;;;7.26;100.00
26087;BME280;13851;43.434;28.338;2023-02-03T09:21:15;100264.66;;;9.18;100.00
26087;BME280;13851;43.434;28.338;2023-02-03T09:23:42;100281.56;;;9.55;100.00
26087;BME280;13851;43.434;28.338;2023-02-03T09:26:10;100305.97;;;8.89;100.00
26087;BME280;13851;43.434;28.338;2023-02-03T09:28:37;100246.69;;;9.07;100.00
26087;BME280;13851;43.434;28.338;2023-02-03T09:31:07;100216.66;;;8.81;100.00
26087;BME280;13851;43.434;28.338;2023-02-03T09:33:33;100240.41;;;8.89;100.00
26087;BME280;13851;43.434;28.338;2023-02-03T09:35:59;100247.84;;;9.04;100.00
26087;BME280;13851;43.434;28.338;2023-02-03T09:38:25;100230.75;;;9.45;100.00
26087;BME280;13851;43.434;28.338;2023-02-03T09:41:15;100251.88;;;9.77;100.00
26087;BME280;13851;43.434;28.338;2023-02-03T09:46:34;100222.81;;;9.92;100.00
26087;BME280;13851;43.434;28.338;2023-02-03T09:49:11;100246.00;;;10.47;100.00
26087;BME280;13851;43.434;28.338;2023-02-03T09:52:04;100261.22;;;10.41;100.00
26087;BME280;13851;43.434;28.338;2023-02-03T09:56:59;100225.09;;;10.46;100.00
26087;BME280;13851;43.434;28.338;2023-02-03T09:59:31;100236.53;;;10.74;100.00
26087;BME280;13851;43.434;28.338;2023-02-03T10:03:03;100222.72;;;10.51;100.00
26087;BME280;13851;43.434;28.338;2023-02-03T10:05:17;100254.34;;;11.41;100.00
26087;BME280;13851;43.434;28.338;2023-02-03T10:11:00;100242.56;;;12.18;100.00
26087;BME280;13851;43.434;28.338;2023-02-03T10:19:20;100247.25;;;13.08;96.66
26087;BME280;13851;43.434;28.338;2023-02-03T10:21:50;100238.31;;;13.20;93.79
26087;BME280;13851;43.434;28.338;2023-02-03T10:24:39;100246.50;;;13.43;91.41
26087;BME280;13851;43.434;28.338;2023-02-03T10:27:20;100194.88;;;13.31;88.36
26087;BME280;13851;43.434;28.338;2023-02-03T10:29:55;100236.06;;;13.53;82.62
26087;BME280;13851;43.434;28.338;2023-02-03T10:32:23;100131.38;;;12.96;84.72
26087;BME280;13851;43.434;28.338;2023-02-03T10:34:50;100230.31;;;13.70;81.50
26087;BME280;13851;43.434;28.338;2023-02-03T10:37:35;100228.78;;;13.82;81.20
26087;BME280;13851;43.434;28.338;2023-02-03T10:40:10;100232.88;;;14.08;80.59
26087;BME280;13851;43.434;28.338;2023-02-03T10:42:36;100192.06;;;13.96;77.94
26087;BME280;13851;43.434;28.338;2023-02-03T10:45:20;100221.44;;;14.11;72.54
26087;BME280;13851;43.434;28.338;2023-02-03T10:47:51;100206.72;;;14.46;69.11
26087;BME280;13851;43.434;28.338;2023-02-03T10:50:21;100270.00;;;14.76;66.40
26087;BME280;13851;43.434;28.338;2023-02-03T10:52:47;100056.91;;;13.76;63.41
26087;BME280;13851;43.434;28.338;2023-02-03T10:57:52;100226.34;;;14.79;62.81
26087;BME280;13851;43.434;28.338;2023-02-03T11:00:22;100228.72;;;15.17;60.21
26087;BME280;13851;43.434;28.338;2023-02-03T11:03:19;100231.34;;;15.32;58.42
26087;BME280;13851;43.434;28.338;2023-02-03T11:05:46;100213.50;;;15.28;57.03
26087;BME280;13851;43.434;28.338;2023-02-03T11:08:15;100114.38;;;14.85;56.75
26087;BME280;13851;43.434;28.338;2023-02-03T11:10:41;100168.88;;;15.24;57.85
26087;BME280;13851;43.434;28.338;2023-02-03T11:13:24;100241.34;;;15.81;56.70
26087;BME280;13851;43.434;28.338;2023-02-03T11:23:41;100229.97;;;15.15;57.06
26087;BME280;13851;43.434;28.338;2023-02-03T11:26:14;100141.13;;;14.91;56.86
26087;BME280;13851;43.434;28.338;2023-02-03T11:28:42;100155.81;;;15.46;56.21
26087;BME280;13851;43.434;28.338;2023-02-03T11:31:18;100179.34;;;15.83;54.99
26087;BME280;13851;43.434;28.338;2023-02-03T11:33:51;100196.81;;;16.10;53.42
26087;BME280;13851;43.434;28.338;2023-02-03T11:36:17;100195.53;;;16.06;54.81
26087;BME280;13851;43.434;28.338;2023-02-03T11:38:43;100205.78;;;16.39;53.67
26087;BME280;13851;43.434;28.338;2023-02-03T11:41:19;100224.75;;;16.95;49.58
26087;BME280;13851;43.434;28.338;2023-02-03T11:43:46;100222.38;;;17.05;48.07
26087;BME280;13851;43.434;28.338;2023-02-03T11:46:13;100206.44;;;16.81;47.98
26087;BME280;13851;43.434;28.338;2023-02-03T12:00:29;100213.06;;;16.80;49.07
26087;BME280;13851;43.434;28.338;2023-02-03T12:11:31;100232.78;;;15.63;51.05
26087;BME280;13851;43.434;28.338;2023-02-03T12:30:10;100223.66;;;13.79;62.07
26087;BME280;13851;43.434;28.338;2023-02-03T12:32:41;100174.41;;;13.33;63.28
26087;BME280;13851;43.434;28.338;2023-02-03T12:35:16;100219.63;;;13.45;64.95
26087;BME280;13851;43.434;28.338;2023-02-03T12:38:02;100224.50;;;13.29;66.07
26087;BME280;13851;43.434;28.338;2023-02-03T12:40:46;99931.38;;;11.35;69.24
26087;BME280;13851;43.434;28.338;2023-02-03T12:45:53;99918.63;;;11.05;72.26
26087;BME280;13851;43.434;28.338;2023-02-03T12:51:14;100256.41;;;12.70;77.60
26087;BME280;13851;43.434;28.338;2023-02-03T12:53:49;100223.69;;;12.61;79.08
26087;BME280;13851;43.434;28.338;2023-02-03T12:56:23;99919.22;;;10.69;79.48
26087;BME280;13851;43.434;28.338;2023-02-03T12:58:55;100160.34;;;11.70;81.43
26087;BME280;13851;43.434;28.338;2023-02-03T13:01:24;100203.69;;;12.29;82.65
26087;BME280;13851;43.434;28.338;2023-02-03T13:03:57;100218.72;;;12.18;84.37
26087;BME280;13851;43.434;28.338;2023-02-03T13:06:27;100237.16;;;12.10;86.69
26087;BME280;13851;43.434;28.338;2023-02-03T13:14:19;100216.25;;;11.78;87.69
26087;BME280;13851;43.434;28.338;2023-02-03T13:16:53;100172.47;;;11.22;89.54
26087;BME280;13851;43.434;28.338;2023-02-03T13:19:26;100185.34;;;11.22;92.86
26087;BME280;13851;43.434;28.338;2023-02-03T13:21:53;100278.72;;;11.28;96.11
26087;BME280;13851;43.434;28.338;2023-02-03T13:24:22;100232.16;;;11.12;99.02
26087;BME280;13851;43.434;28.338;2023-02-03T13:27:04;100216.50;;;10.81;97.91
26087;BME280;13851;43.434;28.338;2023-02-03T13:29:52;100204.56;;;10.50;95.08
26087;BME280;13851;43.434;28.338;2023-02-03T13:35:34;100221.81;;;10.66;95.42
26087;BME280;13851;43.434;28.338;2023-02-03T13:38:10;100217.91;;;10.61;96.18
26087;BME280;13851;43.434;28.338;2023-02-03T13:40:50;100207.63;;;10.47;98.04
26087;BME280;13851;43.434;28.338;2023-02-03T13:43:31;100195.50;;;10.08;100.00
26087;BME280;13851;43.434;28.338;2023-02-03T13:45:59;100197.03;;;10.35;100.00
26087;BME280;13851;43.434;28.338;2023-02-03T13:48:28;100208.34;;;10.32;100.00
26087;BME280;13851;43.434;28.338;2023-02-03T13:51:13;100254.84;;;10.16;100.00
26087;BME280;13851;43.434;28.338;2023-02-03T13:53:40;100200.44;;;10.05;100.00
26087;BME280;13851;43.434;28.338;2023-02-03T13:56:23;99865.34;;;8.21;100.00
26087;BME280;13851;43.434;28.338;2023-02-03T13:59:04;100140.75;;;9.84;100.00
26087;BME280;13851;43.434;28.338;2023-02-03T14:01:37;100200.09;;;10.16;100.00
26087;BME280;13851;43.434;28.338;2023-02-03T14:04:07;99886.56;;;8.36;100.00
26087;BME280;13851;43.434;28.338;2023-02-03T14:12:15;100173.06;;;10.05;100.00
26087;BME280;13851;43.434;28.338;2023-02-03T14:20:10;99890.25;;;8.18;100.00
26087;BME280;13851;43.434;28.338;2023-02-03T14:22:49;100241.66;;;9.95;100.00
26087;BME280;13851;43.434;28.338;2023-02-03T14:25:18;100163.81;;;9.73;100.00
26087;BME280;13851;43.434;28.338;2023-02-03T14:27:45;99942.56;;;8.40;100.00
26087;BME280;13851;43.434;28.338;2023-02-03T14:30:13;100208.28;;;9.92;100.00
26087;BME280;13851;43.434;28.338;2023-02-03T14:32:56;100178.84;;;9.69;100.00
26087;BME280;13851;43.434;28.338;2023-02-03T14:38:12;100194.88;;;9.48;100.00
26087;BME280;13851;43.434;28.338;2023-02-03T14:40:58;100049.16;;;8.89;100.00
26087;BME280;13851;43.434;28.338;2023-02-03T14:56:50;100191.09;;;9.41;100.00
26087;BME280;13851;43.434;28.338;2023-02-03T15:04:35;100185.22;;;9.11;100.00
26087;BME280;13851;43.434;28.338;2023-02-03T15:07:00;100233.66;;;9.01;100.00